sensor_id;sensor_type;location;lat;lon;timestamp;temperature;humidity
31379;DHT22;61664;48.112;11.662;2023-02-11T00:00:40;2.50;70.40
31379;DHT22;61664;48.112;11.662;2023-02-11T00:03:08;2.50;70.30
31379;DHT22;61664;48.112;11.662;2023-02-11T00:05:35;2.50;70.20
31379;DHT22;61664;48.112;11.662;2023-02-11T00:08:02;2.50;70.10
31379;DHT22;61664;48.112;11.662;2023-02-11T00:10:29;2.50;70.10
31379;DHT22;61664;48.112;11.662;2023-02-11T00:12:56;2.50;70.20
31379;DHT22;61664;48.112;11.662;2023-02-11T00:15:23;2.50;70.30
31379;DHT22;61664;48.112;11.662;2023-02-11T00:17:50;2.50;70.30
31379;DHT22;61664;48.112;11.662;2023-02-11T00:20:16;2.50;70.20
31379;DHT22;61664;48.112;11.662;2023-02-11T00:22:43;2.50;70.30
31379;DHT22;61664;48.112;11.662;2023-02-11T00:25:10;2.50;70.30
31379;DHT22;61664;48.112;11.662;2023-02-11T00:27:37;2.50;70.30
31379;DHT22;61664;48.112;11.662;2023-02-11T00:30:04;2.50;70.30
31379;DHT22;61664;48.112;11.662;2023-02-11T00:32:32;2.50;70.30
31379;DHT22;61664;48.112;11.662;2023-02-11T00:34:58;2.50;70.20
31379;DHT22;61664;48.112;11.662;2023-02-11T00:37:25;2.50;70.10
31379;DHT22;61664;48.112;11.662;2023-02-11T00:39:52;2.50;70.10
31379;DHT22;61664;48.112;11.662;2023-02-11T00:42:19;2.50;70.10
31379;DHT22;61664;48.112;11.662;2023-02-11T00:44:46;2.50;70.10
31379;DHT22;61664;48.112;11.662;2023-02-11T00:47:13;2.50;70.10
31379;DHT22;61664;48.112;11.662;2023-02-11T00:49:40;2.50;70.20
31379;DHT22;61664;48.112;11.662;2023-02-11T00:52:06;2.50;70.20
31379;DHT22;61664;48.112;11.662;2023-02-11T00:54:33;2.50;70.20
31379;DHT22;61664;48.112;11.662;2023-02-11T00:57:00;2.50;70.20
31379;DHT22;61664;48.112;11.662;2023-02-11T00:59:27;2.50;70.10
31379;DHT22;61664;48.112;11.662;2023-02-11T01:01:54;2.40;70.10
31379;DHT22;61664;48.112;11.662;2023-02-11T01:04:21;2.40;70.10
31379;DHT22;61664;48.112;11.662;2023-02-11T01:06:48;2.50;70.00
31379;DHT22;61664;48.112;11.662;2023-02-11T01:09:15;2.40;70.00
31379;DHT22;61664;48.112;11.662;2023-02-11T01:11:42;2.40;70.00
31379;DHT22;61664;48.112;11.662;2023-02-11T01:14:09;2.40;70.50
31379;DHT22;61664;48.112;11.662;2023-02-11T01:16:36;2.40;70.10
31379;DHT22;61664;48.112;11.662;2023-02-11T01:19:03;2.40;70.10
31379;DHT22;61664;48.112;11.662;2023-02-11T01:21:30;2.40;70.10
31379;DHT22;61664;48.112;11.662;2023-02-11T01:23:57;2.30;70.10
31379;DHT22;61664;48.112;11.662;2023-02-11T01:26:24;2.30;70.20
31379;DHT22;61664;48.112;11.662;2023-02-11T01:28:51;2.30;70.20
31379;DHT22;61664;48.112;11.662;2023-02-11T01:31:18;2.30;70.20
31379;DHT22;61664;48.112;11.662;2023-02-11T01:33:45;2.30;70.20
31379;DHT22;61664;48.112;11.662;2023-02-11T01:36:12;2.30;70.30
31379;DHT22;61664;48.112;11.662;2023-02-11T01:38:39;2.30;70.40
31379;DHT22;61664;48.112;11.662;2023-02-11T01:41:08;2.30;70.30
31379;DHT22;61664;48.112;11.662;2023-02-11T01:43:41;2.30;70.30
31379;DHT22;61664;48.112;11.662;2023-02-11T01:46:37;2.30;67.50
31379;DHT22;61664;48.112;11.662;2023-02-11T01:49:09;2.30;67.80
31379;DHT22;61664;48.112;11.662;2023-02-11T01:54:21;2.20;69.20
31379;DHT22;61664;48.112;11.662;2023-02-11T01:57:12;2.30;70.40
31379;DHT22;61664;48.112;11.662;2023-02-11T02:08:38;2.30;70.30
31379;DHT22;61664;48.112;11.662;2023-02-11T02:11:09;2.30;68.40
31379;DHT22;61664;48.112;11.662;2023-02-11T02:13:37;2.20;70.50
31379;DHT22;61664;48.112;11.662;2023-02-11T02:16:13;2.20;70.40
31379;DHT22;61664;48.112;11.662;2023-02-11T02:19:05;2.20;70.30
31379;DHT22;61664;48.112;11.662;2023-02-11T02:35:01;2.20;68.90
31379;DHT22;61664;48.112;11.662;2023-02-11T02:40:19;2.20;70.10
31379;DHT22;61664;48.112;11.662;2023-02-11T02:42:50;2.10;69.70
31379;DHT22;61664;48.112;11.662;2023-02-11T02:45:18;2.10;70.40
31379;DHT22;61664;48.112;11.662;2023-02-11T02:47:45;2.10;70.40
31379;DHT22;61664;48.112;11.662;2023-02-11T02:50:15;2.10;70.40
31379;DHT22;61664;48.112;11.662;2023-02-11T02:59:21;2.00;69.70
31379;DHT22;61664;48.112;11.662;2023-02-11T03:05:22;2.00;70.20
31379;DHT22;61664;48.112;11.662;2023-02-11T03:12:59;1.90;70.50
31379;DHT22;61664;48.112;11.662;2023-02-11T03:15:31;1.90;70.50
31379;DHT22;61664;48.112;11.662;2023-02-11T03:18:04;1.90;70.50
31379;DHT22;61664;48.112;11.662;2023-02-11T03:20:35;1.80;70.60
31379;DHT22;61664;48.112;11.662;2023-02-11T03:23:17;1.80;70.60
31379;DHT22;61664;48.112;11.662;2023-02-11T03:25:51;1.80;69.80
31379;DHT22;61664;48.112;11.662;2023-02-11T03:28:26;1.80;67.70
31379;DHT22;61664;48.112;11.662;2023-02-11T03:31:21;1.80;70.80
31379;DHT22;61664;48.112;11.662;2023-02-11T03:33:59;1.80;69.20
31379;DHT22;61664;48.112;11.662;2023-02-11T03:36:41;1.70;70.80
31379;DHT22;61664;48.112;11.662;2023-02-11T03:39:20;1.70;70.80
31379;DHT22;61664;48.112;11.662;2023-02-11T03:41:51;1.70;70.50
31379;DHT22;61664;48.112;11.662;2023-02-11T03:44:22;1.70;70.80
31379;DHT22;61664;48.112;11.662;2023-02-11T03:46:53;1.70;70.80
31379;DHT22;61664;48.112;11.662;2023-02-11T03:49:22;1.70;70.90
31379;DHT22;61664;48.112;11.662;2023-02-11T03:51:52;1.70;70.90
31379;DHT22;61664;48.112;11.662;2023-02-11T03:54:27;1.70;71.00
31379;DHT22;61664;48.112;11.662;2023-02-11T03:56:58;1.70;70.70
31379;DHT22;61664;48.112;11.662;2023-02-11T03:59:27;1.80;70.90
31379;DHT22;61664;48.112;11.662;2023-02-11T04:01:58;1.80;70.80
31379;DHT22;61664;48.112;11.662;2023-02-11T04:04:25;1.80;70.70
31379;DHT22;61664;48.112;11.662;2023-02-11T04:06:51;1.80;67.60
31379;DHT22;61664;48.112;11.662;2023-02-11T04:09:18;1.80;70.70
31379;DHT22;61664;48.112;11.662;2023-02-11T04:11:45;1.80;70.60
31379;DHT22;61664;48.112;11.662;2023-02-11T04:14:12;1.90;70.70
31379;DHT22;61664;48.112;11.662;2023-02-11T04:16:39;1.80;70.60
31379;DHT22;61664;48.112;11.662;2023-02-11T04:19:06;1.80;70.50
31379;DHT22;61664;48.112;11.662;2023-02-11T04:21:33;1.90;70.60
31379;DHT22;61664;48.112;11.662;2023-02-11T04:24:00;1.90;70.50
31379;DHT22;61664;48.112;11.662;2023-02-11T04:26:27;1.90;70.50
31379;DHT22;61664;48.112;11.662;2023-02-11T04:28:53;1.90;70.60
31379;DHT22;61664;48.112;11.662;2023-02-11T04:31:20;1.90;70.60
31379;DHT22;61664;48.112;11.662;2023-02-11T04:33:50;1.90;70.50
31379;DHT22;61664;48.112;11.662;2023-02-11T04:36:17;1.90;70.50
31379;DHT22;61664;48.112;11.662;2023-02-11T04:38:44;2.00;70.50
31379;DHT22;61664;48.112;11.662;2023-02-11T04:41:11;2.00;70.50
31379;DHT22;61664;48.112;11.662;2023-02-11T04:43:38;2.00;70.40
31379;DHT22;61664;48.112;11.662;2023-02-11T04:46:05;2.00;70.40
31379;DHT22;61664;48.112;11.662;2023-02-11T04:48:31;2.00;70.50
31379;DHT22;61664;48.112;11.662;2023-02-11T04:51:00;2.00;70.40
31379;DHT22;61664;48.112;11.662;2023-02-11T04:53:27;2.00;70.40
31379;DHT22;61664;48.112;11.662;2023-02-11T04:55:54;2.00;70.40
31379;DHT22;61664;48.112;11.662;2023-02-11T04:58:21;2.10;70.30
31379;DHT22;61664;48.112;11.662;2023-02-11T05:00:48;2.00;70.20
31379;DHT22;61664;48.112;11.662;2023-02-11T05:03:15;2.00;70.10
31379;DHT22;61664;48.112;11.662;2023-02-11T05:05:42;2.10;70.00
31379;DHT22;61664;48.112;11.662;2023-02-11T05:08:11;2.10;70.00
31379;DHT22;61664;48.112;11.662;2023-02-11T05:10:38;2.10;69.90
31379;DHT22;61664;48.112;11.662;2023-02-11T05:13:05;2.00;69.70
31379;DHT22;61664;48.112;11.662;2023-02-11T05:15:32;2.00;69.70
31379;DHT22;61664;48.112;11.662;2023-02-11T05:17:59;2.00;69.80
31379;DHT22;61664;48.112;11.662;2023-02-11T05:20:25;2.00;69.80
31379;DHT22;61664;48.112;11.662;2023-02-11T05:22:52;2.00;70.00
31379;DHT22;61664;48.112;11.662;2023-02-11T05:25:19;2.00;70.10
31379;DHT22;61664;48.112;11.662;2023-02-11T05:27:46;2.00;70.30
31379;DHT22;61664;48.112;11.662;2023-02-11T05:30:13;2.00;70.50
31379;DHT22;61664;48.112;11.662;2023-02-11T05:32:40;2.00;70.70
31379;DHT22;61664;48.112;11.662;2023-02-11T05:35:07;2.00;70.80
31379;DHT22;61664;48.112;11.662;2023-02-11T05:37:35;2.10;70.80
31379;DHT22;61664;48.112;11.662;2023-02-11T05:40:02;2.10;70.80
31379;DHT22;61664;48.112;11.662;2023-02-11T05:42:29;2.10;70.70
31379;DHT22;61664;48.112;11.662;2023-02-11T05:44:56;2.20;70.70
31379;DHT22;61664;48.112;11.662;2023-02-11T05:47:23;2.20;70.50
31379;DHT22;61664;48.112;11.662;2023-02-11T05:49:50;2.30;70.30
31379;DHT22;61664;48.112;11.662;2023-02-11T05:52:20;2.30;70.30
31379;DHT22;61664;48.112;11.662;2023-02-11T05:54:48;2.30;70.00
31379;DHT22;61664;48.112;11.662;2023-02-11T05:57:15;2.30;70.00
31379;DHT22;61664;48.112;11.662;2023-02-11T05:59:42;2.30;70.00
31379;DHT22;61664;48.112;11.662;2023-02-11T06:02:09;2.30;70.00
31379;DHT22;61664;48.112;11.662;2023-02-11T06:04:37;2.30;70.70
31379;DHT22;61664;48.112;11.662;2023-02-11T06:07:04;2.30;70.20
31379;DHT22;61664;48.112;11.662;2023-02-11T06:09:31;2.40;70.20
31379;DHT22;61664;48.112;11.662;2023-02-11T06:11:57;2.40;70.30
31379;DHT22;61664;48.112;11.662;2023-02-11T06:14:24;2.40;70.30
31379;DHT22;61664;48.112;11.662;2023-02-11T06:16:51;2.40;70.40
31379;DHT22;61664;48.112;11.662;2023-02-11T06:19:18;2.40;70.30
31379;DHT22;61664;48.112;11.662;2023-02-11T06:21:45;2.50;70.30
31379;DHT22;61664;48.112;11.662;2023-02-11T06:24:12;2.50;70.30
31379;DHT22;61664;48.112;11.662;2023-02-11T06:26:38;2.50;70.30
31379;DHT22;61664;48.112;11.662;2023-02-11T06:29:05;2.60;70.20
31379;DHT22;61664;48.112;11.662;2023-02-11T06:31:32;2.60;70.30
31379;DHT22;61664;48.112;11.662;2023-02-11T06:33:59;2.70;70.20
31379;DHT22;61664;48.112;11.662;2023-02-11T06:36:26;2.70;70.40
31379;DHT22;61664;48.112;11.662;2023-02-11T06:38:54;2.70;70.10
31379;DHT22;61664;48.112;11.662;2023-02-11T06:41:21;2.70;70.10
31379;DHT22;61664;48.112;11.662;2023-02-11T06:43:48;2.80;70.10
31379;DHT22;61664;48.112;11.662;2023-02-11T06:46:15;2.80;70.10
31379;DHT22;61664;48.112;11.662;2023-02-11T06:48:42;2.80;70.10
31379;DHT22;61664;48.112;11.662;2023-02-11T06:51:11;2.80;70.10
31379;DHT22;61664;48.112;11.662;2023-02-11T06:53:42;2.90;70.00
31379;DHT22;61664;48.112;11.662;2023-02-11T06:56:16;2.90;69.80
31379;DHT22;61664;48.112;11.662;2023-02-11T06:58:46;3.00;69.80
31379;DHT22;61664;48.112;11.662;2023-02-11T07:01:15;3.00;69.90
31379;DHT22;61664;48.112;11.662;2023-02-11T07:03:43;3.00;69.70
31379;DHT22;61664;48.112;11.662;2023-02-11T07:06:14;3.10;70.00
31379;DHT22;61664;48.112;11.662;2023-02-11T07:08:42;3.10;69.80
31379;DHT22;61664;48.112;11.662;2023-02-11T07:11:13;3.20;70.10
31379;DHT22;61664;48.112;11.662;2023-02-11T07:13:42;3.20;69.90
31379;DHT22;61664;48.112;11.662;2023-02-11T07:16:13;3.30;70.00
31379;DHT22;61664;48.112;11.662;2023-02-11T07:18:42;3.40;69.70
31379;DHT22;61664;48.112;11.662;2023-02-11T07:21:12;3.50;69.90
31379;DHT22;61664;48.112;11.662;2023-02-11T07:23:40;3.50;69.60
31379;DHT22;61664;48.112;11.662;2023-02-11T07:26:10;3.60;69.70
31379;DHT22;61664;48.112;11.662;2023-02-11T07:28:40;3.70;69.40
31379;DHT22;61664;48.112;11.662;2023-02-11T07:31:21;3.70;69.60
31379;DHT22;61664;48.112;11.662;2023-02-11T07:33:56;3.70;66.80
31379;DHT22;61664;48.112;11.662;2023-02-11T07:36:27;3.80;69.30
31379;DHT22;61664;48.112;11.662;2023-02-11T07:38:55;3.80;69.20
31379;DHT22;61664;48.112;11.662;2023-02-11T07:41:23;3.90;69.30
31379;DHT22;61664;48.112;11.662;2023-02-11T07:43:51;3.90;69.20
31379;DHT22;61664;48.112;11.662;2023-02-11T07:46:21;3.90;69.30
31379;DHT22;61664;48.112;11.662;2023-02-11T07:48:50;4.00;69.10
31379;DHT22;61664;48.112;11.662;2023-02-11T07:51:23;4.00;69.40
31379;DHT22;61664;48.112;11.662;2023-02-11T07:53:52;4.10;68.50
31379;DHT22;61664;48.112;11.662;2023-02-11T07:56:21;4.10;69.60
31379;DHT22;61664;48.112;11.662;2023-02-11T07:58:49;4.20;69.60
31379;DHT22;61664;48.112;11.662;2023-02-11T08:01:22;4.30;69.50
31379;DHT22;61664;48.112;11.662;2023-02-11T08:03:53;4.30;69.30
31379;DHT22;61664;48.112;11.662;2023-02-11T08:06:23;4.50;69.40
31379;DHT22;61664;48.112;11.662;2023-02-11T08:08:51;4.50;69.40
31379;DHT22;61664;48.112;11.662;2023-02-11T08:11:23;4.50;69.40
31379;DHT22;61664;48.112;11.662;2023-02-11T08:13:53;4.70;68.60
31379;DHT22;61664;48.112;11.662;2023-02-11T08:16:22;4.70;69.40
31379;DHT22;61664;48.112;11.662;2023-02-11T08:19:00;4.70;69.30
31379;DHT22;61664;48.112;11.662;2023-02-11T08:21:31;4.80;69.10
31379;DHT22;61664;48.112;11.662;2023-02-11T08:24:00;4.80;69.30
31379;DHT22;61664;48.112;11.662;2023-02-11T08:26:30;5.00;69.30
31379;DHT22;61664;48.112;11.662;2023-02-11T08:29:02;5.00;69.40
31379;DHT22;61664;48.112;11.662;2023-02-11T08:31:33;5.10;69.40
31379;DHT22;61664;48.112;11.662;2023-02-11T08:34:03;5.20;69.30
31379;DHT22;61664;48.112;11.662;2023-02-11T08:36:32;5.40;69.30
31379;DHT22;61664;48.112;11.662;2023-02-11T08:39:04;5.50;68.80
31379;DHT22;61664;48.112;11.662;2023-02-11T08:41:46;5.60;68.70
31379;DHT22;61664;48.112;11.662;2023-02-11T08:44:15;5.80;68.90
31379;DHT22;61664;48.112;11.662;2023-02-11T08:46:43;5.90;68.80
31379;DHT22;61664;48.112;11.662;2023-02-11T08:49:10;6.00;68.60
31379;DHT22;61664;48.112;11.662;2023-02-11T08:51:37;6.10;68.30
31379;DHT22;61664;48.112;11.662;2023-02-11T08:54:04;6.20;68.10
31379;DHT22;61664;48.112;11.662;2023-02-11T08:56:35;6.30;67.80
31379;DHT22;61664;48.112;11.662;2023-02-11T08:59:04;6.30;67.50
31379;DHT22;61664;48.112;11.662;2023-02-11T09:01:32;6.40;67.40
31379;DHT22;61664;48.112;11.662;2023-02-11T09:03:59;6.40;67.00
31379;DHT22;61664;48.112;11.662;2023-02-11T09:06:27;6.50;66.90
31379;DHT22;61664;48.112;11.662;2023-02-11T09:08:56;6.50;66.80
31379;DHT22;61664;48.112;11.662;2023-02-11T09:11:30;6.50;66.60
31379;DHT22;61664;48.112;11.662;2023-02-11T09:13:59;6.50;65.50
31379;DHT22;61664;48.112;11.662;2023-02-11T09:16:29;6.50;67.10
31379;DHT22;61664;48.112;11.662;2023-02-11T09:18:59;6.60;67.10
31379;DHT22;61664;48.112;11.662;2023-02-11T09:21:27;6.60;67.20
31379;DHT22;61664;48.112;11.662;2023-02-11T09:23:55;6.60;67.20
31379;DHT22;61664;48.112;11.662;2023-02-11T09:26:28;6.70;67.20
31379;DHT22;61664;48.112;11.662;2023-02-11T09:28:57;6.70;65.50
31379;DHT22;61664;48.112;11.662;2023-02-11T09:31:27;6.70;66.80
31379;DHT22;61664;48.112;11.662;2023-02-11T09:33:59;6.70;66.70
31379;DHT22;61664;48.112;11.662;2023-02-11T09:36:30;6.90;66.50
31379;DHT22;61664;48.112;11.662;2023-02-11T09:39:00;6.80;66.50
31379;DHT22;61664;48.112;11.662;2023-02-11T09:41:38;6.80;66.60
31379;DHT22;61664;48.112;11.662;2023-02-11T09:44:23;6.90;64.00
31379;DHT22;61664;48.112;11.662;2023-02-11T09:49:47;7.00;65.00
31379;DHT22;61664;48.112;11.662;2023-02-11T09:55:38;7.10;61.80
31379;DHT22;61664;48.112;11.662;2023-02-11T09:58:19;7.20;66.90
31379;DHT22;61664;48.112;11.662;2023-02-11T10:04:00;7.40;64.40
31379;DHT22;61664;48.112;11.662;2023-02-11T10:07:00;7.50;63.10
31379;DHT22;61664;48.112;11.662;2023-02-11T10:15:18;8.30;68.50
31379;DHT22;61664;48.112;11.662;2023-02-11T10:24:10;10.40;62.30
31379;DHT22;61664;48.112;11.662;2023-02-11T10:26:40;10.60;64.80
31379;DHT22;61664;48.112;11.662;2023-02-11T10:29:32;10.70;63.90
31379;DHT22;61664;48.112;11.662;2023-02-11T10:32:12;10.70;60.00
31379;DHT22;61664;48.112;11.662;2023-02-11T10:34:45;10.70;61.60
31379;DHT22;61664;48.112;11.662;2023-02-11T10:37:13;10.60;62.40
31379;DHT22;61664;48.112;11.662;2023-02-11T10:39:40;10.40;62.40
31379;DHT22;61664;48.112;11.662;2023-02-11T10:42:12;10.30;62.40
31379;DHT22;61664;48.112;11.662;2023-02-11T10:45:02;10.20;60.40
31379;DHT22;61664;48.112;11.662;2023-02-11T10:47:35;10.10;57.30
31379;DHT22;61664;48.112;11.662;2023-02-11T10:50:25;10.00;62.10
31379;DHT22;61664;48.112;11.662;2023-02-11T10:53:16;9.90;60.10
31379;DHT22;61664;48.112;11.662;2023-02-11T10:55:52;10.00;60.50
31379;DHT22;61664;48.112;11.662;2023-02-11T11:01:02;10.30;62.70
31379;DHT22;61664;48.112;11.662;2023-02-11T11:03:50;10.40;65.50
31379;DHT22;61664;48.112;11.662;2023-02-11T11:06:31;10.70;62.00
31379;DHT22;61664;48.112;11.662;2023-02-11T11:09:00;10.90;60.60
31379;DHT22;61664;48.112;11.662;2023-02-11T11:11:27;11.10;64.10
31379;DHT22;61664;48.112;11.662;2023-02-11T11:13:58;11.10;63.40
31379;DHT22;61664;48.112;11.662;2023-02-11T11:21:40;11.20;59.20
31379;DHT22;61664;48.112;11.662;2023-02-11T11:24:27;11.20;62.20
31379;DHT22;61664;48.112;11.662;2023-02-11T11:27:01;11.10;58.30
31379;DHT22;61664;48.112;11.662;2023-02-11T11:29:38;11.10;61.90
31379;DHT22;61664;48.112;11.662;2023-02-11T11:32:24;11.10;58.90
31379;DHT22;61664;48.112;11.662;2023-02-11T11:34:56;11.10;61.40
31379;DHT22;61664;48.112;11.662;2023-02-11T11:37:29;11.10;62.30
31379;DHT22;61664;48.112;11.662;2023-02-11T11:42:42;11.20;59.70
31379;DHT22;61664;48.112;11.662;2023-02-11T11:47:55;11.30;62.20
31379;DHT22;61664;48.112;11.662;2023-02-11T11:50:34;11.30;58.40
31379;DHT22;61664;48.112;11.662;2023-02-11T11:53:35;11.40;61.00
31379;DHT22;61664;48.112;11.662;2023-02-11T11:56:27;11.30;56.50
31379;DHT22;61664;48.112;11.662;2023-02-11T11:58:59;11.30;56.60
31379;DHT22;61664;48.112;11.662;2023-02-11T12:01:41;11.40;61.30
31379;DHT22;61664;48.112;11.662;2023-02-11T12:08:13;11.50;57.70
31379;DHT22;61664;48.112;11.662;2023-02-11T12:14:27;11.40;60.80
31379;DHT22;61664;48.112;11.662;2023-02-11T12:23:18;11.30;56.40
31379;DHT22;61664;48.112;11.662;2023-02-11T12:31:53;11.30;59.40
31379;DHT22;61664;48.112;11.662;2023-02-11T12:34:22;11.30;62.20
31379;DHT22;61664;48.112;11.662;2023-02-11T12:37:40;11.40;60.70
31379;DHT22;61664;48.112;11.662;2023-02-11T12:43:09;11.40;62.30
31379;DHT22;61664;48.112;11.662;2023-02-11T12:52:34;11.50;57.00
31379;DHT22;61664;48.112;11.662;2023-02-11T12:57:49;11.50;58.10
31379;DHT22;61664;48.112;11.662;2023-02-11T13:03:30;11.50;55.60
31379;DHT22;61664;48.112;11.662;2023-02-11T13:06:11;11.70;60.90
31379;DHT22;61664;48.112;11.662;2023-02-11T13:08:52;11.70;59.80
31379;DHT22;61664;48.112;11.662;2023-02-11T13:11:34;11.80;57.60
31379;DHT22;61664;48.112;11.662;2023-02-11T13:16:43;11.90;60.80
31379;DHT22;61664;48.112;11.662;2023-02-11T13:22:12;12.00;60.00
31379;DHT22;61664;48.112;11.662;2023-02-11T13:25:14;11.90;55.00
31379;DHT22;61664;48.112;11.662;2023-02-11T13:30:49;11.80;55.90
31379;DHT22;61664;48.112;11.662;2023-02-11T13:33:36;11.60;59.20
31379;DHT22;61664;48.112;11.662;2023-02-11T13:36:14;11.50;55.80
31379;DHT22;61664;48.112;11.662;2023-02-11T13:38:52;11.50;59.00
31379;DHT22;61664;48.112;11.662;2023-02-11T13:41:38;11.50;57.80
31379;DHT22;61664;48.112;11.662;2023-02-11T13:46:57;11.60;59.30
31379;DHT22;61664;48.112;11.662;2023-02-11T13:49:38;11.70;54.90
31379;DHT22;61664;48.112;11.662;2023-02-11T13:52:36;11.80;60.00
31379;DHT22;61664;48.112;11.662;2023-02-11T13:55:14;11.90;55.60
31379;DHT22;61664;48.112;11.662;2023-02-11T14:11:49;12.20;59.60
31379;DHT22;61664;48.112;11.662;2023-02-11T14:19:38;12.30;56.10
31379;DHT22;61664;48.112;11.662;2023-02-11T14:22:20;12.30;58.10
31379;DHT22;61664;48.112;11.662;2023-02-11T14:30:41;12.20;54.90
31379;DHT22;61664;48.112;11.662;2023-02-11T14:41:48;12.20;54.90
31379;DHT22;61664;48.112;11.662;2023-02-11T14:44:21;12.10;58.00
31379;DHT22;61664;48.112;11.662;2023-02-11T14:46:51;12.10;58.00
31379;DHT22;61664;48.112;11.662;2023-02-11T14:49:22;12.00;57.50
31379;DHT22;61664;48.112;11.662;2023-02-11T14:51:56;11.90;57.60
31379;DHT22;61664;48.112;11.662;2023-02-11T14:54:47;11.90;56.60
31379;DHT22;61664;48.112;11.662;2023-02-11T14:57:18;11.80;57.10
31379;DHT22;61664;48.112;11.662;2023-02-11T15:00:01;11.80;57.60
31379;DHT22;61664;48.112;11.662;2023-02-11T15:02:36;11.80;53.50
31379;DHT22;61664;48.112;11.662;2023-02-11T15:05:25;11.80;56.60
31379;DHT22;61664;48.112;11.662;2023-02-11T15:07:58;11.80;53.40
31379;DHT22;61664;48.112;11.662;2023-02-11T15:10:36;11.70;57.60
31379;DHT22;61664;48.112;11.662;2023-02-11T15:13:18;11.80;56.30
31379;DHT22;61664;48.112;11.662;2023-02-11T15:15:51;11.80;55.40
31379;DHT22;61664;48.112;11.662;2023-02-11T15:18:23;11.80;56.90
31379;DHT22;61664;48.112;11.662;2023-02-11T15:20:55;11.80;57.70
31379;DHT22;61664;48.112;11.662;2023-02-11T15:23:26;11.70;57.90
31379;DHT22;61664;48.112;11.662;2023-02-11T15:25:55;11.70;57.20
31379;DHT22;61664;48.112;11.662;2023-02-11T15:28:27;11.70;55.20
31379;DHT22;61664;48.112;11.662;2023-02-11T15:31:02;11.70;58.60
31379;DHT22;61664;48.112;11.662;2023-02-11T15:33:50;11.60;56.80
31379;DHT22;61664;48.112;11.662;2023-02-11T15:36:21;11.60;58.80
31379;DHT22;61664;48.112;11.662;2023-02-11T15:39:46;11.60;58.20
31379;DHT22;61664;48.112;11.662;2023-02-11T15:44:49;11.70;54.40
31379;DHT22;61664;48.112;11.662;2023-02-11T15:47:34;11.60;58.90
31379;DHT22;61664;48.112;11.662;2023-02-11T15:50:01;11.60;58.90
31379;DHT22;61664;48.112;11.662;2023-02-11T15:52:29;11.60;58.70
31379;DHT22;61664;48.112;11.662;2023-02-11T15:54:59;11.60;58.40
31379;DHT22;61664;48.112;11.662;2023-02-11T15:57:28;11.50;57.80
31379;DHT22;61664;48.112;11.662;2023-02-11T15:59:55;11.50;58.40
31379;DHT22;61664;48.112;11.662;2023-02-11T16:02:32;11.40;58.30
31379;DHT22;61664;48.112;11.662;2023-02-11T16:05:05;11.40;55.30
31379;DHT22;61664;48.112;11.662;2023-02-11T16:07:39;11.30;57.70
31379;DHT22;61664;48.112;11.662;2023-02-11T16:10:29;11.20;56.80
31379;DHT22;61664;48.112;11.662;2023-02-11T16:13:14;11.20;54.10
31379;DHT22;61664;48.112;11.662;2023-02-11T16:15:47;11.10;57.60
31379;DHT22;61664;48.112;11.662;2023-02-11T16:18:33;11.10;58.60
31379;DHT22;61664;48.112;11.662;2023-02-11T16:21:11;11.00;56.10
31379;DHT22;61664;48.112;11.662;2023-02-11T16:23:42;11.00;58.70
31379;DHT22;61664;48.112;11.662;2023-02-11T16:26:38;10.90;59.00
31379;DHT22;61664;48.112;11.662;2023-02-11T16:29:14;10.90;55.50
31379;DHT22;61664;48.112;11.662;2023-02-11T16:31:46;10.90;57.60
31379;DHT22;61664;48.112;11.662;2023-02-11T16:34:17;10.80;57.70
31379;DHT22;61664;48.112;11.662;2023-02-11T16:36:49;10.70;58.70
31379;DHT22;61664;48.112;11.662;2023-02-11T16:39:18;10.60;59.30
31379;DHT22;61664;48.112;11.662;2023-02-11T16:41:50;10.70;59.10
31379;DHT22;61664;48.112;11.662;2023-02-11T16:44:17;10.60;59.10
31379;DHT22;61664;48.112;11.662;2023-02-11T16:46:44;10.50;59.30
31379;DHT22;61664;48.112;11.662;2023-02-11T16:49:27;10.50;59.40
31379;DHT22;61664;48.112;11.662;2023-02-11T16:51:59;10.40;57.60
31379;DHT22;61664;48.112;11.662;2023-02-11T16:54:28;10.40;59.10
31379;DHT22;61664;48.112;11.662;2023-02-11T16:56:56;10.40;59.50
31379;DHT22;61664;48.112;11.662;2023-02-11T16:59:23;10.30;59.60
31379;DHT22;61664;48.112;11.662;2023-02-11T17:01:52;10.30;59.70
31379;DHT22;61664;48.112;11.662;2023-02-11T17:04:27;10.20;59.40
31379;DHT22;61664;48.112;11.662;2023-02-11T17:06:56;10.20;58.00
31379;DHT22;61664;48.112;11.662;2023-02-11T17:09:26;10.20;59.90
31379;DHT22;61664;48.112;11.662;2023-02-11T17:11:56;10.10;59.50
31379;DHT22;61664;48.112;11.662;2023-02-11T17:14:23;10.10;59.90
31379;DHT22;61664;48.112;11.662;2023-02-11T17:16:50;10.00;59.70
31379;DHT22;61664;48.112;11.662;2023-02-11T17:19:19;10.00;59.70
31379;DHT22;61664;48.112;11.662;2023-02-11T17:21:50;9.90;59.30
31379;DHT22;61664;48.112;11.662;2023-02-11T17:24:19;9.90;59.50
31379;DHT22;61664;48.112;11.662;2023-02-11T17:26:47;9.80;59.70
31379;DHT22;61664;48.112;11.662;2023-02-11T17:29:18;9.80;59.90
31379;DHT22;61664;48.112;11.662;2023-02-11T17:31:48;9.70;59.40
31379;DHT22;61664;48.112;11.662;2023-02-11T17:34:15;9.60;60.00
31379;DHT22;61664;48.112;11.662;2023-02-11T17:36:43;9.60;60.20
31379;DHT22;61664;48.112;11.662;2023-02-11T17:39:10;9.50;60.30
31379;DHT22;61664;48.112;11.662;2023-02-11T17:41:38;9.50;60.50
31379;DHT22;61664;48.112;11.662;2023-02-11T17:44:07;9.40;60.40
31379;DHT22;61664;48.112;11.662;2023-02-11T17:46:35;9.40;60.60
31379;DHT22;61664;48.112;11.662;2023-02-11T17:49:03;9.40;60.90
31379;DHT22;61664;48.112;11.662;2023-02-11T17:51:35;9.30;60.70
31379;DHT22;61664;48.112;11.662;2023-02-11T17:54:13;9.30;60.40
31379;DHT22;61664;48.112;11.662;2023-02-11T17:56:42;9.30;59.40
31379;DHT22;61664;48.112;11.662;2023-02-11T17:59:11;9.30;60.90
31379;DHT22;61664;48.112;11.662;2023-02-11T18:01:40;9.20;60.80
31379;DHT22;61664;48.112;11.662;2023-02-11T18:04:15;9.20;60.80
31379;DHT22;61664;48.112;11.662;2023-02-11T18:06:44;9.20;60.60
31379;DHT22;61664;48.112;11.662;2023-02-11T18:09:11;9.20;61.20
31379;DHT22;61664;48.112;11.662;2023-02-11T18:11:39;9.20;61.20
31379;DHT22;61664;48.112;11.662;2023-02-11T18:14:06;9.20;61.20
31379;DHT22;61664;48.112;11.662;2023-02-11T18:16:34;9.20;61.20
31379;DHT22;61664;48.112;11.662;2023-02-11T18:19:05;9.10;61.30
31379;DHT22;61664;48.112;11.662;2023-02-11T18:21:33;9.10;61.50
31379;DHT22;61664;48.112;11.662;2023-02-11T18:24:00;9.10;61.60
31379;DHT22;61664;48.112;11.662;2023-02-11T18:26:33;9.10;61.70
31379;DHT22;61664;48.112;11.662;2023-02-11T18:29:00;9.10;61.70
31379;DHT22;61664;48.112;11.662;2023-02-11T18:31:29;9.00;61.70
31379;DHT22;61664;48.112;11.662;2023-02-11T18:33:56;9.10;61.80